Time;durP1;ratioP1;P1;durP2;ratioP2;P2;SDS_P1;SDS_P2;PMS_P1;PMS_P2;Temp;Humidity;BMP_temperature;BMP_pressure;BME280_temperature;BME280_humidity;BME280_pressure;Samples;Min_cycle;Max_cycle;Signal;HPM_P1;HPM_P2
2020/12/17 00:00:28;;;;;;;1.55;0.60;;;29.50;99.90;;;;;;5059027;28;20397;-78
2020/12/17 00:02:56;;;;;;;1.08;0.40;;;29.20;99.90;;;;;;5059535;28;20079;-80
2020/12/17 00:05:23;;;;;;;4.00;0.50;;;29.50;99.90;;;;;;5089572;22;20044;-79
2020/12/17 00:07:50;;;;;;;1.02;0.50;;;29.60;99.90;;;;;;5075454;28;20476;-79
2020/12/17 00:10:18;;;;;;;2.10;0.77;;;29.60;99.90;;;;;;5073709;28;20028;-79
2020/12/17 00:12:47;;;;;;;0.65;0.40;;;29.70;99.90;;;;;;5070514;28;20035;-78
2020/12/17 00:15:16;;;;;;;0.90;0.50;;;29.90;99.90;;;;;;5072384;28;20365;-79
2020/12/17 00:17:48;;;;;;;3.05;0.40;;;30.10;99.90;;;;;;5080175;28;20032;-78
2020/12/17 00:20:18;;;;;;;1.17;0.43;;;30.30;99.90;;;;;;5064318;28;20541;-79
2020/12/17 00:22:46;;;;;;;1.30;0.43;;;30.30;99.90;;;;;;5073136;28;20040;-79
2020/12/17 00:25:18;;;;;;;1.33;0.50;;;30.00;99.90;;;;;;5068786;28;20032;-79
2020/12/17 00:27:47;;;;;;;3.75;0.90;;;29.90;99.90;;;;;;5050892;28;20038;-78
2020/12/17 00:30:16;;;;;;;3.03;0.52;;;30.00;99.90;;;;;;5071875;28;20017;-79
2020/12/17 00:32:47;;;;;;;2.03;0.68;;;30.40;99.90;;;;;;5070852;28;20482;-80
2020/12/17 00:35:16;;;;;;;2.92;0.40;;;30.50;99.90;;;;;;5075520;28;20031;-77
2020/12/17 00:37:44;;;;;;;0.90;0.50;;;30.80;99.90;;;;;;5069180;28;20106;-81
2020/12/17 00:40:15;;;;;;;2.63;0.88;;;31.00;99.90;;;;;;5087353;28;20523;-80
2020/12/17 00:42:45;;;;;;;2.17;0.50;;;31.10;99.90;;;;;;5057687;28;20035;-80
2020/12/17 00:45:13;;;;;;;2.05;0.40;;;31.00;99.90;;;;;;5075264;28;20021;-80
2020/12/17 00:47:40;;;;;;;2.90;0.50;;;30.70;99.90;;;;;;5077701;28;20081;-80
2020/12/17 00:50:10;;;;;;;2.15;0.40;;;31.10;99.90;;;;;;5086323;28;20020;-83
2020/12/17 00:52:43;;;;;;;1.85;0.60;;;31.00;99.90;;;;;;5066369;28;20170;-81
2020/12/17 00:55:10;;;;;;;2.38;0.52;;;31.20;99.90;;;;;;5076315;28;20519;-81
2020/12/17 00:57:38;;;;;;;2.15;0.50;;;31.00;99.90;;;;;;5075687;28;20037;-80
2020/12/17 01:00:09;;;;;;;1.45;0.50;;;30.90;99.90;;;;;;5053466;28;20032;-80
2020/12/17 01:02:37;;;;;;;1.38;0.40;;;31.20;99.90;;;;;;5057352;28;20032;-78
2020/12/17 01:05:06;;;;;;;2.53;0.90;;;31.60;99.90;;;;;;5067321;23;20522;-79
2020/12/17 01:07:34;;;;;;;3.97;0.70;;;31.40;99.90;;;;;;5110583;22;20043;-78
2020/12/17 01:10:02;;;;;;;1.73;0.50;;;31.40;99.90;;;;;;5067482;28;20037;-79
2020/12/17 01:12:31;;;;;;;0.73;0.50;;;32.00;99.90;;;;;;5055075;22;20055;-79
2020/12/17 01:14:59;;;;;;;12.73;2.78;;;31.30;99.90;;;;;;5073291;28;20024;-78
2020/12/17 01:17:26;;;;;;;6.78;1.60;;;31.30;99.90;;;;;;5045489;28;20041;-80
2020/12/17 01:19:53;;;;;;;9.10;2.55;;;31.30;99.90;;;;;;5057581;28;20103;-77
2020/12/17 01:22:21;;;;;;;7.35;2.38;;;31.20;99.90;;;;;;5068829;22;20059;-78
2020/12/17 01:24:48;;;;;;;8.55;2.60;;;31.30;99.90;;;;;;5052898;28;20036;-79
2020/12/17 01:27:15;;;;;;;5.97;1.83;;;31.40;99.90;;;;;;5068291;28;20048;-77
2020/12/17 01:29:42;;;;;;;10.80;2.17;;;31.50;99.90;;;;;;5070595;28;20028;-82
2020/12/17 01:32:10;;;;;;;10.10;2.15;;;31.70;99.90;;;;;;5067051;28;20033;-80
2020/12/17 01:34:37;;;;;;;8.48;2.30;;;31.50;99.90;;;;;;5052925;28;20079;-79
2020/12/17 01:37:04;;;;;;;5.65;1.77;;;31.50;99.90;;;;;;5077007;28;20024;-79
2020/12/17 01:39:32;;;;;;;8.70;2.13;;;31.60;99.90;;;;;;5068453;23;20102;-77
2020/12/17 01:41:59;;;;;;;11.73;2.40;;;32.00;99.90;;;;;;5060073;28;20032;-79
2020/12/17 01:44:26;;;;;;;9.02;2.50;;;31.90;99.90;;;;;;5066639;28;20248;-79
2020/12/17 01:46:54;;;;;;;9.60;2.53;;;31.60;99.90;;;;;;5057706;28;20028;-80
2020/12/17 01:49:26;;;;;;;12.60;3.45;;;31.70;99.90;;;;;;5057927;28;20105;-79
2020/12/17 01:51:54;;;;;;;9.43;1.92;;;31.80;99.90;;;;;;5062440;28;20025;-79
2020/12/17 01:54:22;;;;;;;7.75;2.42;;;32.00;99.90;;;;;;5066213;28;20120;-79
2020/12/17 01:57:03;;;;;;;9.90;2.45;;;32.20;99.90;;;;;;5066349;28;20024;-79
2020/12/17 01:59:47;;;;;;;9.70;3.05;;;32.20;99.90;;;;;;5065775;28;20031;-79
2020/12/17 02:02:17;;;;;;;7.68;2.75;;;30.80;99.90;;;;;;5052974;28;20111;-79
2020/12/17 02:04:46;;;;;;;13.32;3.20;;;30.20;99.90;;;;;;5066023;28;20024;-78
2020/12/17 02:07:13;;;;;;;8.18;2.53;;;30.40;99.90;;;;;;5066123;28;20099;-79
2020/12/17 02:09:41;;;;;;;11.43;3.10;;;30.90;99.90;;;;;;5066596;28;20922;-79
2020/12/17 02:12:09;;;;;;;10.48;2.25;;;31.60;99.90;;;;;;5083675;22;20110;-79
2020/12/17 02:14:36;;;;;;;11.77;2.72;;;31.00;99.90;;;;;;5066411;28;20024;-79
2020/12/17 02:17:03;;;;;;;8.70;2.45;;;31.40;99.90;;;;;;5071068;28;20488;-79
2020/12/17 02:19:31;;;;;;;10.93;2.00;;;31.70;99.90;;;;;;5080670;28;20536;-79
2020/12/17 02:21:58;;;;;;;12.23;3.22;;;32.10;99.90;;;;;;5054779;28;20708;-80
2020/12/17 02:24:26;;;;;;;8.80;2.50;;;32.00;99.90;;;;;;5083775;28;20028;-79
2020/12/17 02:26:53;;;;;;;11.80;3.13;;;31.40;99.90;;;;;;5067955;28;20024;-79
2020/12/17 02:29:21;;;;;;;11.65;2.88;;;31.60;99.90;;;;;;5069430;28;20024;-79
2020/12/17 02:31:49;;;;;;;9.35;2.90;;;32.10;99.90;;;;;;5074969;28;20529;-82
2020/12/17 02:34:20;;;;;;;13.63;2.83;;;32.30;99.90;;;;;;5080276;28;20016;-80
2020/12/17 02:36:48;;;;;;;9.13;2.70;;;32.30;99.90;;;;;;5074824;28;20028;-80
2020/12/17 02:39:16;;;;;;;11.90;3.60;;;31.70;99.90;;;;;;5065793;28;20024;-80
2020/12/17 02:41:43;;;;;;;10.48;3.65;;;31.50;99.90;;;;;;5044138;28;20106;-81
2020/12/17 02:44:10;;;;;;;10.88;2.50;;;31.70;99.90;;;;;;5084362;28;20048;-80
2020/12/17 02:46:37;;;;;;;12.13;2.65;;;31.40;99.90;;;;;;5080505;28;20025;-87
2020/12/17 02:49:05;;;;;;;11.63;3.10;;;31.50;99.90;;;;;;5085280;28;20020;-85
2020/12/17 02:51:32;;;;;;;9.75;2.33;;;32.00;99.90;;;;;;5067681;28;20025;-84
2020/12/17 02:53:59;;;;;;;7.03;2.08;;;31.90;99.90;;;;;;5079115;28;20230;-85
2020/12/17 02:56:27;;;;;;;9.45;2.20;;;31.70;99.90;;;;;;5052892;28;20024;-83
2020/12/17 02:58:54;;;;;;;9.32;2.58;;;31.70;99.90;;;;;;5076575;28;20020;-82
2020/12/17 03:01:24;;;;;;;8.90;2.47;;;31.50;99.90;;;;;;5082589;28;20066;-84
2020/12/17 03:03:52;;;;;;;7.38;2.33;;;31.70;99.90;;;;;;5074345;28;20402;-83
2020/12/17 03:06:19;;;;;;;10.85;2.97;;;31.80;99.90;;;;;;5059464;28;20588;-84
2020/12/17 03:08:47;;;;;;;10.65;3.17;;;32.00;99.90;;;;;;5083841;28;20028;-84
2020/12/17 03:11:14;;;;;;;10.25;2.55;;;31.70;99.90;;;;;;5086290;28;20052;-84
2020/12/17 03:13:42;;;;;;;12.23;2.45;;;31.20;99.90;;;;;;5103482;22;20064;-83
2020/12/17 03:16:09;;;;;;;13.82;2.53;;;31.20;99.90;;;;;;5049335;22;20144;-83
2020/12/17 03:18:36;;;;;;;9.57;2.88;;;30.80;99.90;;;;;;5056435;28;20021;-83
2020/12/17 03:21:04;;;;;;;9.50;3.25;;;30.30;99.90;;;;;;5059648;22;20062;-83
2020/12/17 03:23:31;;;;;;;16.77;3.30;;;30.50;99.90;;;;;;5052332;28;20130;-83
2020/12/17 03:25:58;;;;;;;11.20;2.40;;;30.30;99.90;;;;;;5043988;28;20029;-83
2020/12/17 03:28:26;;;;;;;5.70;1.98;;;30.20;99.90;;;;;;5069623;23;20258;-85
2020/12/17 03:30:53;;;;;;;6.05;1.70;;;30.40;99.90;;;;;;5054563;28;20068;-84
2020/12/17 03:33:20;;;;;;;6.85;1.88;;;30.30;99.90;;;;;;5047314;28;20070;-84
2020/12/17 03:35:48;;;;;;;9.43;1.80;;;30.20;99.90;;;;;;5046122;28;20098;-87
2020/12/17 03:38:15;;;;;;;4.40;1.60;;;30.40;99.90;;;;;;5051689;28;20024;-85
2020/12/17 03:40:42;;;;;;;5.97;1.85;;;30.20;99.90;;;;;;5044614;28;20028;-88
2020/12/17 03:43:10;;;;;;;7.78;1.52;;;30.30;99.90;;;;;;5033947;28;20048;-84
2020/12/17 03:45:37;;;;;;;8.32;1.38;;;30.70;99.90;;;;;;5060867;23;20041;-88
2020/12/17 03:48:04;;;;;;;5.72;1.52;;;30.80;99.90;;;;;;5046986;28;20033;-90
2020/12/17 03:50:32;;;;;;;9.30;2.17;;;30.60;99.90;;;;;;5044208;28;20013;-81
2020/12/17 03:52:59;;;;;;;6.82;1.85;;;30.30;99.90;;;;;;5041576;28;20043;-83
2020/12/17 03:55:26;;;;;;;5.75;1.67;;;29.90;99.90;;;;;;5033355;28;20079;-80
2020/12/17 03:57:53;;;;;;;6.18;1.50;;;30.10;99.90;;;;;;5032961;28;20037;-80
2020/12/17 04:00:21;;;;;;;4.60;1.33;;;30.50;99.90;;;;;;5046727;28;20481;-85
2020/12/17 04:02:48;;;;;;;9.70;1.92;;;30.70;99.90;;;;;;5011895;28;20025;-76
2020/12/17 04:05:15;;;;;;;6.88;2.08;;;30.70;99.90;;;;;;5030159;28;20066;-78
2020/12/17 04:08:02;;;;;;;7.18;1.67;;;30.60;99.90;;;;;;5037523;28;20112;-76
2020/12/17 04:10:29;;;;;;;7.65;2.13;;;29.80;99.90;;;;;;5041826;28;20032;-76
2020/12/17 04:12:56;;;;;;;7.68;1.30;;;29.50;99.90;;;;;;5044665;28;20029;-76
2020/12/17 04:15:24;;;;;;;10.10;2.00;;;29.60;99.90;;;;;;5050162;28;20070;-75
2020/12/17 04:17:51;;;;;;;8.07;1.58;;;29.90;99.90;;;;;;5030386;28;20025;-76
2020/12/17 04:20:18;;;;;;;9.63;1.50;;;30.00;99.90;;;;;;5084085;23;20406;-76
2020/12/17 04:22:46;;;;;;;7.93;2.17;;;30.00;99.90;;;;;;5080898;28;20048;-76
2020/12/17 04:25:13;;;;;;;8.00;2.30;;;30.10;99.90;;;;;;5074759;28;20402;-76
2020/12/17 04:27:40;;;;;;;7.03;1.70;;;30.10;99.90;;;;;;5062902;28;20063;-76
2020/12/17 04:30:07;;;;;;;6.57;1.50;;;30.30;99.90;;;;;;5069624;28;20024;-76
2020/12/17 04:32:34;;;;;;;6.43;1.58;;;30.50;99.90;;;;;;5079410;28;20028;-76
2020/12/17 04:35:02;;;;;;;7.95;1.83;;;30.60;99.90;;;;;;5074310;28;20023;-76
2020/12/17 04:37:30;;;;;;;8.00;1.95;;;30.10;99.90;;;;;;5088356;28;20031;-76
2020/12/17 04:39:57;;;;;;;6.05;1.40;;;29.80;99.90;;;;;;5062141;28;20104;-76
2020/12/17 04:42:25;;;;;;;6.55;1.52;;;29.60;99.90;;;;;;5050416;28;20028;-76
2020/12/17 04:44:53;;;;;;;4.97;1.20;;;29.40;99.90;;;;;;5063800;28;20060;-76
2020/12/17 04:47:21;;;;;;;7.75;1.70;;;29.00;99.90;;;;;;5066795;28;20077;-75
2020/12/17 04:49:54;;;;;;;6.05;1.58;;;28.70;99.90;;;;;;5091934;28;20388;-76
2020/12/17 04:52:25;;;;;;;7.32;1.70;;;28.40;99.90;;;;;;5071074;28;20032;-76
2020/12/17 04:54:53;;;;;;;10.07;1.90;;;28.20;99.90;;;;;;5092049;28;20026;-77
2020/12/17 04:57:25;;;;;;;6.95;1.85;;;28.20;99.90;;;;;;5070944;28;20034;-77
2020/12/17 04:59:53;;;;;;;5.90;1.40;;;28.00;99.90;;;;;;5091707;28;20020;-77
2020/12/17 05:02:22;;;;;;;10.60;2.15;;;27.80;99.90;;;;;;5085200;28;20381;-77
2020/12/17 05:04:51;;;;;;;8.32;1.70;;;27.70;99.90;;;;;;5078373;28;20012;-77
2020/12/17 05:07:24;;;;;;;10.10;2.20;;;27.50;99.90;;;;;;5076532;28;20113;-76
2020/12/17 05:09:52;;;;;;;10.25;2.30;;;27.40;99.90;;;;;;5091031;28;20078;-76
2020/12/17 05:12:20;;;;;;;7.30;1.45;;;27.30;99.90;;;;;;5087708;28;20106;-76
2020/12/17 05:14:48;;;;;;;12.80;1.90;;;27.30;99.90;;;;;;5091837;28;20024;-77
2020/12/17 05:17:16;;;;;;;7.28;1.50;;;27.40;99.90;;;;;;5071068;28;20020;-76
2020/12/17 05:19:44;;;;;;;9.30;1.85;;;27.40;99.90;;;;;;5068482;22;20048;-76
2020/12/17 05:22:16;;;;;;;13.55;2.53;;;27.50;99.90;;;;;;5084650;23;20048;-76
2020/12/17 05:24:47;;;;;;;9.20;1.70;;;27.60;99.90;;;;;;5071526;23;20095;-76
2020/12/17 05:27:15;;;;;;;10.38;1.98;;;27.90;99.90;;;;;;5068883;23;20056;-76
2020/12/17 05:29:43;;;;;;;9.27;2.22;;;28.30;99.90;;;;;;5051375;28;20025;-75
2020/12/17 05:32:18;;;;;;;13.60;1.70;;;28.30;99.90;;;;;;5046713;28;20121;-76
2020/12/17 05:34:46;;;;;;;8.43;1.95;;;28.10;99.90;;;;;;5038054;28;20477;-76
2020/12/17 05:37:14;;;;;;;15.73;3.60;;;27.80;99.90;;;;;;5066211;23;20048;-76
2020/12/17 05:39:44;;;;;;;7.85;1.63;;;27.80;99.90;;;;;;5056846;28;20017;-76
2020/12/17 05:42:15;;;;;;;11.65;2.28;;;27.80;99.90;;;;;;5081329;28;20054;-76
2020/12/17 05:44:42;;;;;;;11.88;2.28;;;28.00;99.90;;;;;;5091559;28;20027;-75
2020/12/17 05:47:17;;;;;;;10.38;3.22;;;28.10;99.90;;;;;;5070025;28;20024;-77
2020/12/17 05:49:44;;;;;;;11.73;1.83;;;28.20;99.90;;;;;;5091214;28;20477;-76
2020/12/17 05:54:44;;;;;;;9.23;1.38;;;28.40;99.90;;;;;;5078589;22;20059;-76
2020/12/17 05:57:14;;;;;;;10.00;1.70;;;28.40;99.90;;;;;;5075825;28;20024;-76
2020/12/17 05:59:53;;;;;;;10.90;2.22;;;28.30;99.90;;;;;;5091587;28;20027;-76
2020/12/17 06:02:34;;;;;;;10.20;2.05;;;28.30;99.90;;;;;;5087482;28;20024;-76
2020/12/17 06:05:05;;;;;;;10.50;2.50;;;28.20;99.90;;;;;;5076211;28;20048;-75
2020/12/17 06:07:47;;;;;;;9.15;2.03;;;28.20;99.90;;;;;;5077537;28;20111;-77
2020/12/17 06:10:24;;;;;;;9.63;2.15;;;28.10;99.90;;;;;;5071522;28;20031;-76
2020/12/17 06:12:54;;;;;;;10.90;2.85;;;28.10;99.90;;;;;;5080486;28;20366;-76
2020/12/17 06:15:31;;;;;;;15.48;3.20;;;28.20;99.90;;;;;;5088282;28;20440;-76
2020/12/17 06:18:03;;;;;;;9.00;1.85;;;28.20;99.90;;;;;;5068371;28;20116;-76
2020/12/17 06:20:33;;;;;;;8.88;1.48;;;28.20;99.90;;;;;;5079941;28;20032;-77
2020/12/17 06:23:03;;;;;;;10.23;2.10;;;28.20;99.90;;;;;;5089696;28;20564;-76
2020/12/17 06:27:57;;;;;;;12.48;2.50;;;28.30;99.90;;;;;;5075715;22;20126;-77
2020/12/17 06:30:26;;;;;;;7.63;1.75;;;28.40;99.90;;;;;;5074378;28;20024;-76
2020/12/17 06:32:57;;;;;;;11.45;2.17;;;28.50;99.90;;;;;;5063805;28;20060;-76
2020/12/17 06:35:48;;;;;;;7.13;1.67;;;28.50;99.90;;;;;;5054067;28;20025;-77
2020/12/17 06:38:16;;;;;;;8.38;2.20;;;28.60;99.90;;;;;;5084212;28;20077;-77
2020/12/17 06:40:44;;;;;;;6.80;1.55;;;28.60;99.90;;;;;;5076616;28;20031;-76
2020/12/17 06:43:13;;;;;;;7.80;1.80;;;28.60;99.90;;;;;;5090547;28;20028;-77
2020/12/17 06:45:40;;;;;;;10.70;1.70;;;28.50;99.90;;;;;;5094898;28;20031;-76
2020/12/17 06:48:40;;;;;;;7.65;1.40;;;28.50;99.90;;;;;;5090431;28;20114;-76
2020/12/17 06:51:32;;;;;;;12.38;2.30;;;28.40;99.90;;;;;;5094143;28;20069;-77
2020/12/17 06:54:01;;;;;;;8.27;2.20;;;28.30;99.90;;;;;;5054074;28;20072;-78
2020/12/17 06:56:28;;;;;;;12.50;1.95;;;28.40;99.90;;;;;;5047929;28;20031;-77
2020/12/17 06:59:22;;;;;;;9.10;1.80;;;28.40;99.90;;;;;;5074749;28;20381;-77
2020/12/17 07:01:50;;;;;;;8.77;2.03;;;28.30;99.90;;;;;;5075838;28;20025;-77
2020/12/17 07:04:36;;;;;;;10.77;2.35;;;28.30;99.90;;;;;;5078116;28;20416;-77
2020/12/17 07:07:10;;;;;;;7.57;1.90;;;28.40;99.90;;;;;;5072395;28;20056;-77
2020/12/17 07:09:37;;;;;;;9.77;2.47;;;28.40;99.90;;;;;;5071593;28;20028;-77
2020/12/17 07:12:05;;;;;;;7.97;1.70;;;28.50;99.90;;;;;;5068403;28;20032;-77
2020/12/17 07:14:34;;;;;;;10.77;2.03;;;28.50;99.90;;;;;;5072807;28;20028;-76
2020/12/17 07:17:07;;;;;;;7.20;2.33;;;28.50;99.90;;;;;;5053278;28;20028;-76
2020/12/17 07:19:44;;;;;;;8.07;1.90;;;28.60;99.90;;;;;;5072603;28;20021;-76
2020/12/17 07:22:14;;;;;;;12.88;3.42;;;28.60;99.90;;;;;;5072606;28;20029;-76
2020/12/17 07:24:54;;;;;;;9.98;2.35;;;28.70;99.90;;;;;;5053932;28;20459;-76
2020/12/17 07:27:29;;;;;;;9.63;1.90;;;28.70;99.90;;;;;;5086366;22;20060;-77
2020/12/17 07:30:06;;;;;;;12.70;2.95;;;28.60;99.90;;;;;;5104761;22;20053;-76
2020/12/17 07:32:46;;;;;;;7.40;2.10;;;28.50;99.90;;;;;;5031353;28;20104;-76
2020/12/17 07:35:14;;;;;;;8.43;2.00;;;28.30;99.90;;;;;;5036164;23;20049;-77
2020/12/17 07:37:53;;;;;;;11.88;2.97;;;28.20;99.90;;;;;;5053315;28;20025;-76
2020/12/17 07:40:25;;;;;;;11.23;2.42;;;28.20;99.90;;;;;;5034527;28;20106;-76
2020/12/17 07:45:45;;;;;;;11.45;2.47;;;28.10;99.90;;;;;;5069448;23;20099;-77
2020/12/17 07:48:44;;;;;;;8.05;2.13;;;28.20;99.90;;;;;;5045078;28;20033;-77
2020/12/17 07:51:15;;;;;;;8.60;2.17;;;28.30;99.90;;;;;;5040503;28;20406;-77
2020/12/17 07:53:47;;;;;;;10.48;2.80;;;28.20;99.90;;;;;;5052872;28;20017;-76
2020/12/17 07:56:15;;;;;;;7.70;2.17;;;28.10;99.90;;;;;;5052139;28;20029;-76
2020/12/17 07:58:43;;;;;;;9.15;2.15;;;28.20;99.90;;;;;;5052799;28;20025;-78
2020/12/17 08:01:12;;;;;;;9.45;1.70;;;28.10;99.90;;;;;;5058005;22;20052;-77
2020/12/17 08:03:53;;;;;;;13.63;3.38;;;28.10;99.90;;;;;;5053414;28;20118;-77
2020/12/17 08:06:26;;;;;;;16.63;3.60;;;28.00;99.90;;;;;;5048388;28;20031;-77
2020/12/17 08:08:58;;;;;;;16.05;3.50;;;27.70;99.90;;;;;;5039738;28;20040;-76
2020/12/17 08:11:26;;;;;;;16.90;3.83;;;27.50;99.90;;;;;;5052486;28;20021;-77
2020/12/17 08:14:04;;;;;;;13.95;3.53;;;27.40;99.90;;;;;;5051876;28;20524;-77
2020/12/17 08:16:32;;;;;;;16.95;4.53;;;27.30;99.90;;;;;;5052069;28;20021;-76
2020/12/17 08:19:01;;;;;;;20.20;5.22;;;27.30;99.90;;;;;;5051046;28;20033;-76
2020/12/17 08:21:29;;;;;;;29.00;4.80;;;27.10;99.90;;;;;;5049230;28;20490;-76
2020/12/17 08:23:57;;;;;;;21.58;4.20;;;27.00;99.90;;;;;;5050545;28;20029;-76
2020/12/17 08:26:27;;;;;;;19.63;5.32;;;26.90;99.90;;;;;;5051422;28;20050;-76
2020/12/17 08:28:54;;;;;;;18.60;3.80;;;26.90;99.90;;;;;;5051366;28;20057;-77
2020/12/17 08:31:27;;;;;;;19.73;4.60;;;26.80;99.90;;;;;;5051065;28;20052;-76
2020/12/17 08:33:56;;;;;;;18.20;4.55;;;26.80;99.90;;;;;;5066226;22;20052;-77
2020/12/17 08:36:26;;;;;;;16.40;4.15;;;26.70;99.90;;;;;;5071776;28;20028;-76
2020/12/17 08:39:18;;;;;;;19.60;4.53;;;26.60;99.90;;;;;;5071539;28;20116;-77
2020/12/17 08:41:54;;;;;;;15.32;3.47;;;26.60;99.90;;;;;;5071122;28;20103;-76
2020/12/17 08:44:25;;;;;;;20.40;4.38;;;26.40;99.90;;;;;;5069211;28;20025;-76
2020/12/17 08:47:01;;;;;;;17.45;3.40;;;26.30;99.90;;;;;;5071724;28;20032;-76
2020/12/17 08:49:29;;;;;;;17.70;4.10;;;26.30;99.90;;;;;;5070112;28;20032;-76
2020/12/17 08:51:57;;;;;;;14.85;4.63;;;26.20;99.90;;;;;;5070917;28;20036;-76
2020/12/17 08:54:32;;;;;;;18.25;3.72;;;26.10;99.90;;;;;;5079262;28;20111;-76
2020/12/17 08:57:05;;;;;;;15.45;4.75;;;26.10;99.90;;;;;;5051380;28;20022;-76
2020/12/17 08:59:32;;;;;;;20.20;4.60;;;26.10;99.90;;;;;;5068532;28;20020;-84
2020/12/17 09:02:00;;;;;;;17.58;3.88;;;26.20;99.90;;;;;;5070788;28;20265;-83
2020/12/17 09:04:28;;;;;;;15.63;3.17;;;26.10;99.90;;;;;;5082022;28;20082;-83
2020/12/17 09:07:00;;;;;;;13.75;3.33;;;26.10;99.90;;;;;;5070951;28;20169;-83
2020/12/17 09:09:30;;;;;;;13.25;3.90;;;26.00;99.90;;;;;;5071537;28;20036;-83
2020/12/17 09:11:59;;;;;;;13.10;4.40;;;26.00;99.90;;;;;;5071304;28;20032;-82
2020/12/17 09:14:34;;;;;;;13.48;2.55;;;25.90;99.90;;;;;;5059822;28;20028;-83
2020/12/17 09:17:16;;;;;;;12.18;3.42;;;26.00;99.90;;;;;;5066560;28;20020;-82
2020/12/17 09:19:48;;;;;;;14.02;3.25;;;26.00;99.90;;;;;;5069890;28;20511;-82
2020/12/17 09:22:22;;;;;;;13.10;3.63;;;25.90;99.90;;;;;;5069598;28;20032;-82
2020/12/17 09:24:54;;;;;;;9.70;2.63;;;25.90;99.90;;;;;;5084404;28;20074;-82
2020/12/17 09:27:27;;;;;;;5.72;2.25;;;25.70;99.90;;;;;;5070522;28;20138;-82
2020/12/17 09:30:18;;;;;;;12.70;2.63;;;25.60;99.90;;;;;;5071775;28;20024;-82
2020/12/17 09:33:01;;;;;;;12.82;2.70;;;25.60;99.90;;;;;;5045451;28;20063;-82
2020/12/17 09:35:35;;;;;;;11.43;2.60;;;25.60;99.90;;;;;;5095370;22;20032;-81
2020/12/17 09:38:05;;;;;;;8.68;2.63;;;25.60;99.90;;;;;;5059982;22;20060;-82
2020/12/17 09:40:34;;;;;;;9.60;2.33;;;25.50;99.90;;;;;;5072390;28;20463;-82
2020/12/17 09:43:08;;;;;;;9.55;2.70;;;25.40;99.90;;;;;;5074894;22;20132;-82
2020/12/17 09:45:40;;;;;;;9.07;2.20;;;25.40;99.90;;;;;;5034888;28;20018;-82
2020/12/17 09:48:25;;;;;;;4.65;1.50;;;25.40;99.90;;;;;;5071325;28;20033;-82
2020/12/17 09:50:56;;;;;;;6.65;1.90;;;25.40;99.90;;;;;;5047319;22;20082;-81
2020/12/17 09:53:25;;;;;;;7.97;2.33;;;25.50;99.90;;;;;;5051879;28;20562;-81
2020/12/17 09:55:52;;;;;;;12.73;3.10;;;25.40;99.90;;;;;;5044281;28;20021;-82
2020/12/17 09:58:20;;;;;;;8.23;1.80;;;25.40;99.90;;;;;;5095088;28;20051;-82
2020/12/17 10:00:48;;;;;;;10.80;2.58;;;25.30;99.90;;;;;;5092100;28;20043;-81
2020/12/17 10:03:15;;;;;;;10.23;2.28;;;25.30;99.90;;;;;;5087667;28;20116;-82
2020/12/17 10:05:43;;;;;;;10.88;2.17;;;25.20;99.90;;;;;;5074927;28;20081;-82
2020/12/17 10:08:10;;;;;;;12.48;2.42;;;25.20;99.90;;;;;;5087454;22;20072;-81
2020/12/17 10:10:38;;;;;;;12.55;2.47;;;25.10;99.90;;;;;;5053936;28;20074;-86
2020/12/17 10:13:07;;;;;;;11.23;3.38;;;25.10;99.90;;;;;;5054461;28;20041;-80
2020/12/17 10:15:35;;;;;;;9.57;3.30;;;25.10;99.90;;;;;;5054773;28;20017;-82
2020/12/17 10:18:03;;;;;;;10.90;2.60;;;25.10;99.90;;;;;;5064252;28;20435;-81
2020/12/17 10:20:30;;;;;;;7.93;2.50;;;25.10;99.90;;;;;;5050157;28;20078;-82
2020/12/17 10:22:58;;;;;;;12.13;3.70;;;25.10;99.90;;;;;;5044519;28;20307;-82
2020/12/17 10:25:26;;;;;;;6.60;2.40;;;25.00;99.90;;;;;;5059432;28;20524;-81
2020/12/17 10:27:55;;;;;;;11.13;2.78;;;25.00;99.90;;;;;;5066398;22;20417;-82
2020/12/17 10:30:22;;;;;;;10.55;2.83;;;24.90;99.90;;;;;;5035850;28;20037;-81
2020/12/17 10:32:50;;;;;;;9.63;3.38;;;24.90;99.90;;;;;;5037659;28;20544;-81
2020/12/17 10:35:20;;;;;;;7.68;2.45;;;24.80;99.90;;;;;;5054987;28;20043;-80
2020/12/17 10:37:48;;;;;;;11.85;3.05;;;24.90;99.90;;;;;;5044716;28;20081;-81
2020/12/17 10:40:15;;;;;;;7.05;2.45;;;24.90;99.90;;;;;;5075239;23;20046;-80
2020/12/17 10:42:43;;;;;;;8.57;2.60;;;24.90;99.90;;;;;;5056699;28;20029;-81
2020/12/17 10:45:11;;;;;;;6.78;2.55;;;25.00;99.90;;;;;;5057128;28;20497;-81
2020/12/17 10:47:39;;;;;;;10.50;2.80;;;24.90;99.90;;;;;;5075222;28;20032;-81
2020/12/17 10:50:12;;;;;;;6.25;2.65;;;24.90;99.90;;;;;;5075027;28;20029;-82
2020/12/17 10:52:40;;;;;;;9.70;3.28;;;24.90;99.90;;;;;;5085029;28;20024;-82
2020/12/17 10:55:07;;;;;;;8.38;3.03;;;25.00;99.90;;;;;;5091458;28;20013;-82
2020/12/17 10:57:35;;;;;;;11.68;2.97;;;25.00;99.90;;;;;;5065108;28;20034;-81
2020/12/17 11:00:03;;;;;;;8.80;2.90;;;25.00;99.90;;;;;;5068817;28;20132;-81
2020/12/17 11:02:30;;;;;;;11.82;2.97;;;25.00;99.90;;;;;;5075118;28;20028;-81
2020/12/17 11:05:00;;;;;;;10.65;2.40;;;25.00;99.90;;;;;;5075597;28;20781;-82
2020/12/17 11:07:30;;;;;;;10.15;2.30;;;25.00;99.90;;;;;;5077486;28;20032;-80
2020/12/17 11:10:00;;;;;;;6.40;2.63;;;25.00;99.90;;;;;;5076917;28;20044;-81
2020/12/17 11:12:28;;;;;;;10.75;2.97;;;25.00;99.90;;;;;;5094918;28;20032;-82
2020/12/17 11:14:55;;;;;;;8.88;2.65;;;25.00;99.90;;;;;;5081009;28;20020;-81
2020/12/17 11:17:22;;;;;;;8.18;2.55;;;25.00;99.90;;;;;;5088900;28;20557;-81
2020/12/17 11:19:50;;;;;;;8.15;2.80;;;24.90;99.90;;;;;;5073953;28;20029;-80
2020/12/17 11:22:17;;;;;;;9.10;2.92;;;24.80;99.90;;;;;;5075514;28;20047;-80
2020/12/17 11:24:45;;;;;;;10.27;2.95;;;24.80;99.90;;;;;;5054847;28;20040;-79
2020/12/17 11:27:12;;;;;;;10.02;2.97;;;24.90;99.90;;;;;;5054613;28;20036;-79
2020/12/17 11:29:39;;;;;;;7.70;2.90;;;24.90;99.90;;;;;;5072777;28;20048;-80
2020/12/17 11:32:07;;;;;;;7.90;2.97;;;25.00;99.90;;;;;;5078865;28;20024;-81
2020/12/17 11:34:34;;;;;;;11.20;3.47;;;25.10;99.90;;;;;;5054872;28;20469;-80
2020/12/17 11:37:01;;;;;;;11.35;3.22;;;25.10;99.90;;;;;;5072918;28;20036;-80
2020/12/17 11:39:29;;;;;;;13.68;3.05;;;25.00;99.90;;;;;;5073016;28;20036;-80
2020/12/17 11:42:00;;;;;;;10.15;2.47;;;25.00;99.90;;;;;;5071432;22;20394;-82
2020/12/17 11:44:27;;;;;;;7.30;2.42;;;25.00;99.90;;;;;;5069976;22;20045;-80
2020/12/17 11:46:54;;;;;;;8.32;2.40;;;25.00;99.90;;;;;;5053197;28;20037;-81
2020/12/17 11:49:21;;;;;;;8.68;2.20;;;25.00;99.90;;;;;;5085414;22;20056;-81
2020/12/17 11:51:53;;;;;;;6.07;1.90;;;25.10;99.90;;;;;;5016910;28;20524;-81
2020/12/17 11:54:20;;;;;;;5.47;1.95;;;25.00;99.90;;;;;;5033478;28;20033;-81
2020/12/17 11:56:51;;;;;;;5.68;2.13;;;25.00;99.90;;;;;;5048006;28;20025;-81
2020/12/17 11:59:19;;;;;;;5.10;1.92;;;25.00;99.90;;;;;;5032351;23;20057;-81
2020/12/17 12:01:47;;;;;;;5.38;2.05;;;25.00;99.90;;;;;;5050529;28;20067;-80
2020/12/17 12:04:14;;;;;;;5.63;2.33;;;25.00;99.90;;;;;;5052259;28;20052;-81
2020/12/17 12:06:42;;;;;;;5.18;1.60;;;25.00;99.90;;;;;;5034518;28;20045;-81
2020/12/17 12:09:10;;;;;;;3.95;1.70;;;25.00;99.90;;;;;;5052576;28;20107;-81
2020/12/17 12:11:37;;;;;;;7.03;1.70;;;25.00;99.90;;;;;;5052363;28;20486;-81
2020/12/17 12:14:04;;;;;;;5.60;1.77;;;25.00;99.90;;;;;;5051828;28;20040;-81
2020/12/17 12:16:31;;;;;;;6.25;1.85;;;25.00;99.90;;;;;;5068018;23;20079;-80
2020/12/17 12:18:59;;;;;;;3.05;1.58;;;24.90;99.90;;;;;;5084296;28;20024;-81
2020/12/17 12:21:26;;;;;;;4.55;1.48;;;24.90;99.90;;;;;;5061538;28;20032;-80
2020/12/17 12:23:56;;;;;;;4.45;1.48;;;24.90;99.90;;;;;;5053282;28;20029;-80
2020/12/17 12:26:26;;;;;;;8.43;2.47;;;24.90;99.90;;;;;;5050374;28;20025;-81
2020/12/17 12:28:54;;;;;;;4.90;2.17;;;24.90;99.90;;;;;;5050798;28;20065;-81
2020/12/17 12:31:21;;;;;;;6.18;1.92;;;25.00;99.90;;;;;;5041930;28;20024;-81
2020/12/17 12:33:52;;;;;;;2.85;1.63;;;25.00;99.90;;;;;;5072109;28;20164;-81
2020/12/17 12:36:22;;;;;;;3.40;1.38;;;25.00;99.90;;;;;;5063450;28;20024;-81
2020/12/17 12:38:49;;;;;;;3.67;1.40;;;25.10;99.90;;;;;;5070268;28;20028;-81
2020/12/17 12:41:20;;;;;;;2.65;1.40;;;25.00;99.90;;;;;;5067289;28;20117;-81
2020/12/17 12:43:47;;;;;;;2.78;1.40;;;25.10;99.90;;;;;;5053721;28;20036;-81
2020/12/17 12:46:23;;;;;;;4.38;1.58;;;25.20;99.90;;;;;;5053524;28;20032;-80
2020/12/17 12:48:51;;;;;;;4.30;1.50;;;25.20;99.90;;;;;;5060733;22;20095;-81
2020/12/17 12:51:21;;;;;;;3.72;1.40;;;25.20;99.90;;;;;;5050910;28;20028;-81
2020/12/17 12:53:48;;;;;;;4.20;1.58;;;25.20;99.90;;;;;;5071832;28;20115;-80
2020/12/17 12:56:24;;;;;;;6.07;1.55;;;25.30;99.90;;;;;;5070821;28;20021;-81
2020/12/17 12:58:51;;;;;;;6.93;1.70;;;25.30;99.90;;;;;;5071034;28;20020;-81
2020/12/17 13:01:19;;;;;;;5.32;1.60;;;25.20;99.90;;;;;;5050507;28;20086;-81
2020/12/17 13:03:47;;;;;;;4.60;1.30;;;25.20;99.90;;;;;;5070872;28;20074;-81